Time;durP1;ratioP1;P1;durP2;ratioP2;P2;SDS_P1;SDS_P2;PMS_P1;PMS_P2;Temp;Humidity;BMP_temperature;BMP_pressure;BME280_temperature;BME280_humidity;BME280_pressure;Samples;Min_cycle;Max_cycle;Signal;HPM_P1;HPM_P2
2021/10/21 00:00:47;;;;;;;3.97;2.92;;;;;;;14.90;100.00;98708.28;5027955;28;20060;-53
2021/10/21 00:03:14;;;;;;;3.78;3.10;;;;;;;14.94;98.68;98694.53;5011589;28;20062;-53
2021/10/21 00:05:41;;;;;;;3.90;2.95;;;;;;;14.93;98.55;98684.88;5005463;28;20049;-53
2021/10/21 00:08:08;;;;;;;4.03;2.70;;;;;;;14.93;97.96;98682.19;5031839;28;20044;-53
2021/10/21 00:10:35;;;;;;;5.63;3.05;;;;;;;14.96;97.93;98673.91;5022085;28;20064;-53
2021/10/21 00:13:01;;;;;;;3.28;2.97;;;;;;;15.00;97.12;98669.97;5026003;28;20045;-54
2021/10/21 00:15:28;;;;;;;2.80;2.53;;;;;;;15.07;96.63;98648.94;5028392;28;20050;-53
2021/10/21 00:17:54;;;;;;;4.47;2.92;;;;;;;15.05;96.79;98635.75;5027615;28;20068;-54
2021/10/21 00:20:21;;;;;;;3.97;3.10;;;;;;;15.02;96.82;98614.69;5025243;28;20659;-53
2021/10/21 00:22:47;;;;;;;2.63;2.42;;;;;;;15.03;96.68;98627.03;5024332;28;20069;-51
2021/10/21 00:25:14;;;;;;;3.78;3.13;;;;;;;15.04;96.75;98627.88;5023452;28;20046;-54
2021/10/21 00:27:40;;;;;;;4.38;2.70;;;;;;;15.00;96.96;98598.00;5021813;28;20053;-52
2021/10/21 00:30:07;;;;;;;3.50;2.60;;;;;;;15.01;97.01;98598.84;5020594;28;20073;-52
2021/10/21 00:32:34;;;;;;;3.40;2.92;;;;;;;14.98;97.28;98583.97;5024735;28;20064;-53
2021/10/21 00:35:00;;;;;;;4.05;2.40;;;;;;;14.98;97.42;98597.28;5025248;28;20044;-53
2021/10/21 00:37:27;;;;;;;5.05;2.58;;;;;;;14.98;97.92;98588.47;5024809;28;20075;-53
2021/10/21 00:39:53;;;;;;;3.20;2.63;;;;;;;15.02;97.85;98571.19;5012365;28;20643;-53
2021/10/21 00:42:20;;;;;;;4.93;2.83;;;;;;;14.97;98.13;98547.63;5029472;28;20133;-53
2021/10/21 00:44:46;;;;;;;2.92;2.63;;;;;;;14.95;98.61;98548.78;5042558;28;20044;-53
2021/10/21 00:47:13;;;;;;;4.28;2.85;;;;;;;14.94;98.51;98545.28;5032915;28;20041;-53
2021/10/21 00:49:40;;;;;;;2.97;2.58;;;;;;;14.96;98.26;98542.44;5022634;28;20045;-51
2021/10/21 00:52:06;;;;;;;4.32;2.35;;;;;;;15.02;97.42;98532.06;5026907;28;20041;-53
2021/10/21 00:54:34;;;;;;;5.95;2.75;;;;;;;15.04;97.18;98522.09;5023906;28;20045;-54
2021/10/21 00:57:02;;;;;;;4.22;2.33;;;;;;;15.05;97.54;98522.94;5043390;28;20061;-53
2021/10/21 00:59:31;;;;;;;2.22;2.03;;;;;;;15.08;97.11;98522.66;5018154;28;20060;-55
2021/10/21 01:01:58;;;;;;;2.97;2.20;;;;;;;15.13;96.84;98503.53;5016653;28;20053;-51
2021/10/21 01:04:25;;;;;;;2.35;2.15;;;;;;;15.14;96.68;98505.22;5026363;28;20136;-53
2021/10/21 01:06:51;;;;;;;3.20;2.40;;;;;;;15.14;96.91;98483.88;5031704;28;20077;-53
2021/10/21 01:09:18;;;;;;;2.40;2.20;;;;;;;15.05;97.01;98475.81;5018548;28;20055;-54
2021/10/21 01:11:45;;;;;;;3.33;2.20;;;;;;;15.18;96.84;98482.63;5029670;28;20045;-52
2021/10/21 01:14:11;;;;;;;2.58;2.38;;;;;;;15.24;96.44;98458.03;5023193;28;20049;-53
2021/10/21 01:16:41;;;;;;;3.05;2.22;;;;;;;15.26;96.25;98469.41;5043548;28;20548;-52
2021/10/21 01:19:22;;;;;;;3.03;2.35;;;;;;;15.31;95.94;98477.78;5024752;28;20513;-53
2021/10/21 01:21:52;;;;;;;2.22;2.03;;;;;;;15.35;95.67;98463.16;5020116;28;20091;-53
2021/10/21 01:24:19;;;;;;;3.80;2.58;;;;;;;15.39;95.68;98461.88;5021108;28;20060;-54
2021/10/21 01:26:48;;;;;;;6.15;2.60;;;;;;;15.40;95.39;98451.06;5024095;28;20057;-53
2021/10/21 01:29:15;;;;;;;2.90;2.50;;;;;;;15.41;95.42;98451.91;5023265;28;20049;-53
2021/10/21 01:31:42;;;;;;;4.80;3.40;;;;;;;15.45;94.79;98437.25;5020529;28;21000;-51
2021/10/21 01:34:11;;;;;;;2.97;2.30;;;;;;;15.48;94.68;98439.63;5030650;28;20110;-53
2021/10/21 01:36:39;;;;;;;3.65;2.30;;;;;;;15.49;95.43;98429.81;5029218;28;20069;-54
2021/10/21 01:39:09;;;;;;;4.35;2.95;;;;;;;15.46;96.56;98420.28;5023023;28;20053;-54
2021/10/21 01:41:35;;;;;;;3.27;2.97;;;;;;;15.37;97.52;98426.53;5019829;28;20041;-53
2021/10/21 01:44:03;;;;;;;3.35;2.60;;;;;;;15.30;99.08;98398.75;5025928;28;20053;-52
2021/10/21 01:46:29;;;;;;;7.40;3.20;;;;;;;15.19;100.00;98412.31;5022296;28;20709;-53
2021/10/21 01:48:56;;;;;;;5.10;3.30;;;;;;;15.11;100.00;98405.03;5024010;28;20190;-53
2021/10/21 01:51:23;;;;;;;5.03;3.15;;;;;;;15.00;100.00;98391.91;5024764;28;20052;-53
2021/10/21 01:53:49;;;;;;;3.83;3.53;;;;;;;14.93;100.00;98399.69;5026029;28;20041;-52
2021/10/21 01:56:16;;;;;;;4.63;3.80;;;;;;;14.86;100.00;98427.06;5029575;28;20049;-53
2021/10/21 01:58:42;;;;;;;5.10;3.83;;;;;;;14.77;100.00;98460.75;5023731;28;20053;-52
2021/10/21 02:01:09;;;;;;;4.80;4.18;;;;;;;14.67;100.00;98455.44;5015753;28;20285;-54
2021/10/21 02:03:35;;;;;;;5.53;3.83;;;;;;;14.66;100.00;98442.28;5024367;28;20128;-53
2021/10/21 02:06:02;;;;;;;5.72;3.90;;;;;;;14.57;100.00;98467.13;5046144;28;20049;-54
2021/10/21 02:08:28;;;;;;;3.78;2.85;;;;;;;14.48;100.00;98471.47;5028019;28;20053;-55
2021/10/21 02:10:55;;;;;;;4.30;2.42;;;;;;;14.33;100.00;98489.69;5028994;28;20036;-53
2021/10/21 02:13:22;;;;;;;2.83;2.08;;;;;;;14.21;100.00;98448.22;5024387;28;20059;-53
2021/10/21 02:15:49;;;;;;;3.92;2.20;;;;;;;14.01;100.00;98466.03;5035067;28;20509;-53
2021/10/21 02:18:15;;;;;;;2.10;1.30;;;;;;;13.79;100.00;98444.19;5027204;28;20056;-53
2021/10/21 02:20:42;;;;;;;3.25;1.70;;;;;;;13.56;100.00;98431.16;5018677;28;20552;-56
2021/10/21 02:23:08;;;;;;;1.88;0.95;;;;;;;13.33;100.00;98419.09;5026860;28;20672;-52
2021/10/21 02:25:35;;;;;;;2.83;1.40;;;;;;;13.31;100.00;98413.06;5029057;28;20527;-52
2021/10/21 02:28:01;;;;;;;4.72;1.60;;;;;;;13.18;100.00;98420.47;5031483;28;20076;-53
2021/10/21 02:30:27;;;;;;;1.73;0.90;;;;;;;12.93;100.00;98411.97;5028653;28;20410;-52
2021/10/21 02:32:54;;;;;;;3.17;0.93;;;;;;;12.92;100.00;98404.13;5033154;28;20071;-53
2021/10/21 02:35:22;;;;;;;2.45;0.85;;;;;;;12.89;100.00;98415.88;5025268;28;20075;-53
2021/10/21 02:37:48;;;;;;;1.92;0.80;;;;;;;12.92;98.85;98442.16;5037445;28;20057;-52
2021/10/21 02:40:15;;;;;;;2.63;1.00;;;;;;;12.92;97.78;98430.69;5026001;28;20049;-53
2021/10/21 02:42:41;;;;;;;2.60;0.85;;;;;;;12.97;97.28;98431.97;5045573;28;20067;-53
2021/10/21 02:45:09;;;;;;;2.85;1.20;;;;;;;12.93;96.36;98451.81;5036347;28;20048;-53
2021/10/21 02:47:35;;;;;;;4.50;1.02;;;;;;;12.96;92.41;98458.66;5021409;28;20582;-53
2021/10/21 02:50:03;;;;;;;2.10;0.80;;;;;;;12.95;93.80;98441.88;5023265;28;20053;-52
2021/10/21 02:52:29;;;;;;;3.50;0.88;;;;;;;13.03;90.31;98451.03;5026282;28;20091;-52
2021/10/21 02:54:56;;;;;;;2.42;0.73;;;;;;;13.07;90.16;98437.31;5022220;28;20049;-51
2021/10/21 02:57:22;;;;;;;3.67;0.80;;;;;;;13.11;88.62;98452.00;5026300;28;20055;-52
2021/10/21 02:59:49;;;;;;;4.00;1.08;;;;;;;13.08;88.53;98478.00;5027804;28;20056;-53
2021/10/21 03:02:15;;;;;;;6.43;0.80;;;;;;;13.14;87.16;98466.84;5027259;28;20057;-53
2021/10/21 03:04:42;;;;;;;3.03;0.80;;;;;;;13.02;86.20;98478.56;5027293;28;20049;-52
2021/10/21 03:07:08;;;;;;;3.63;0.73;;;;;;;13.16;82.91;98486.19;5022573;28;20081;-54
2021/10/21 03:09:34;;;;;;;2.35;0.73;;;;;;;13.02;86.65;98473.25;5037396;28;20045;-53
2021/10/21 03:12:01;;;;;;;3.20;0.75;;;;;;;12.93;86.35;98469.56;5018202;28;20063;-53
2021/10/21 03:14:28;;;;;;;3.35;0.63;;;;;;;13.12;82.48;98495.38;5021306;28;20454;-53
2021/10/21 03:16:54;;;;;;;3.17;0.75;;;;;;;13.34;79.58;98481.91;5022438;28;20049;-53
2021/10/21 03:19:21;;;;;;;3.97;0.75;;;;;;;13.42;78.93;98487.38;5040154;28;20053;-53
2021/10/21 03:21:47;;;;;;;4.47;0.80;;;;;;;13.51;76.34;98485.75;5021780;28;20052;-53
2021/10/21 03:24:14;;;;;;;3.22;0.75;;;;;;;13.63;75.64;98469.53;5026692;28;20045;-53
2021/10/21 03:26:40;;;;;;;3.17;0.50;;;;;;;13.62;74.63;98475.81;5024152;28;20060;-53
2021/10/21 03:29:06;;;;;;;4.10;0.80;;;;;;;13.66;74.03;98479.91;5028106;28;20057;-53
2021/10/21 03:31:33;;;;;;;5.63;0.85;;;;;;;13.65;73.10;98472.03;5011212;28;20061;-52
2021/10/21 03:34:00;;;;;;;4.07;0.77;;;;;;;13.74;72.83;98443.75;5019605;28;20052;-53
2021/10/21 03:36:27;;;;;;;6.68;0.90;;;;;;;13.73;72.47;98468.69;5026673;28;20059;-52
2021/10/21 03:38:53;;;;;;;4.88;0.85;;;;;;;13.73;72.50;98463.34;5027496;28;20060;-53
2021/10/21 03:41:20;;;;;;;4.72;1.00;;;;;;;13.75;72.92;98472.03;5022188;28;20540;-52
2021/10/21 03:43:47;;;;;;;5.32;0.63;;;;;;;13.76;72.67;98484.38;5020544;28;20053;-52
2021/10/21 03:46:13;;;;;;;3.28;0.60;;;;;;;13.73;72.93;98474.00;5026215;28;20087;-55
2021/10/21 03:48:40;;;;;;;3.42;0.80;;;;;;;13.77;71.90;98462.94;5023886;28;20140;-55
2021/10/21 03:51:06;;;;;;;3.63;0.65;;;;;;;13.79;71.43;98463.66;5023525;28;20048;-52
2021/10/21 03:53:33;;;;;;;5.00;0.68;;;;;;;13.83;71.44;98478.38;5024963;28;20053;-53
2021/10/21 03:55:59;;;;;;;3.35;0.70;;;;;;;13.76;70.51;98466.59;5027589;28;20049;-52
2021/10/21 03:58:26;;;;;;;2.67;0.52;;;;;;;13.82;70.31;98449.25;5021557;28;20560;-52
2021/10/21 04:00:53;;;;;;;6.32;0.80;;;;;;;13.89;69.32;98464.50;5031498;28;20152;-53
2021/10/21 04:03:19;;;;;;;3.85;0.70;;;;;;;13.88;68.25;98464.63;5017553;28;20131;-55
2021/10/21 04:05:46;;;;;;;3.90;0.70;;;;;;;13.84;67.58;98460.59;5025658;28;20049;-53
2021/10/21 04:08:13;;;;;;;3.70;0.60;;;;;;;13.99;66.52;98469.84;5038315;28;20045;-54
2021/10/21 04:10:39;;;;;;;10.52;1.05;;;;;;;13.91;66.60;98451.06;5020026;28;20049;-53
2021/10/21 04:13:06;;;;;;;4.40;0.60;;;;;;;13.97;66.41;98454.00;5020727;28;20060;-54
2021/10/21 04:15:32;;;;;;;4.22;0.85;;;;;;;13.97;66.91;98450.50;5023216;28;20048;-53
2021/10/21 04:17:59;;;;;;;4.38;0.80;;;;;;;13.90;67.17;98455.53;5022618;28;20052;-54
2021/10/21 04:20:25;;;;;;;5.65;0.60;;;;;;;13.86;66.94;98427.53;5022855;28;20056;-53
2021/10/21 04:22:52;;;;;;;5.10;0.75;;;;;;;13.90;66.98;98452.03;5021456;28;20049;-53
2021/10/21 04:25:18;;;;;;;3.03;0.60;;;;;;;13.95;66.44;98437.34;5023281;28;20048;-52
2021/10/21 04:27:45;;;;;;;3.85;0.60;;;;;;;13.95;66.50;98437.34;5033734;28;20045;-52
2021/10/21 04:30:13;;;;;;;4.45;1.00;;;;;;;13.93;66.55;98436.63;5020506;28;20041;-53
2021/10/21 04:32:39;;;;;;;7.13;0.95;;;;;;;13.94;65.82;98422.34;5015849;28;20064;-52
2021/10/21 04:35:07;;;;;;;4.65;0.55;;;;;;;13.92;66.27;98434.94;5021704;28;20041;-53
2021/10/21 04:37:33;;;;;;;6.97;0.70;;;;;;;14.00;65.28;98419.13;5024587;28;20063;-53
2021/10/21 04:40:00;;;;;;;4.90;0.80;;;;;;;13.99;65.40;98411.28;5021296;28;20049;-53
2021/10/21 04:42:27;;;;;;;3.22;0.60;;;;;;;13.96;65.96;98419.56;5018117;28;20059;-52
2021/10/21 04:44:54;;;;;;;4.45;0.73;;;;;;;13.96;66.22;98438.19;5030166;28;20134;-53
2021/10/21 04:47:20;;;;;;;2.67;0.52;;;;;;;13.97;66.02;98426.56;5024946;28;20528;-52
2021/10/21 04:49:47;;;;;;;6.90;0.90;;;;;;;13.89;65.72;98400.63;5021878;28;20092;-53
2021/10/21 04:52:13;;;;;;;6.43;0.93;;;;;;;13.99;64.70;98425.44;5018329;28;20514;-55
2021/10/21 04:54:40;;;;;;;7.65;1.00;;;;;;;14.07;64.51;98438.03;5025716;28;20045;-53
2021/10/21 04:57:06;;;;;;;6.80;1.02;;;;;;;14.04;64.47;98430.31;5024189;28;20045;-52
2021/10/21 04:59:33;;;;;;;7.70;0.70;;;;;;;14.05;64.37;98440.81;5040326;28;20045;-52
2021/10/21 05:01:59;;;;;;;7.40;0.80;;;;;;;14.08;64.25;98457.50;5017019;28;20045;-53
2021/10/21 05:04:26;;;;;;;5.10;0.80;;;;;;;14.02;65.18;98470.38;5037553;28;20079;-54
2021/10/21 05:06:53;;;;;;;6.57;0.90;;;;;;;14.01;64.70;98439.41;5018567;28;20395;-52
2021/10/21 05:09:19;;;;;;;6.72;1.35;;;;;;;13.98;65.26;98462.84;5030391;28;20064;-53
2021/10/21 05:11:45;;;;;;;8.27;0.90;;;;;;;13.87;66.04;98452.31;5016501;28;20041;-53
2021/10/21 05:14:16;;;;;;;4.78;0.70;;;;;;;13.84;66.69;98465.91;5034735;28;20098;-52
2021/10/21 05:16:43;;;;;;;7.78;1.00;;;;;;;13.77;66.91;98449.66;5021803;28;20052;-52
2021/10/21 05:19:09;;;;;;;8.90;1.15;;;;;;;13.68;68.03;98434.53;5023713;28;20479;-53
2021/10/21 05:21:36;;;;;;;6.82;0.80;;;;;;;13.59;67.88;98440.69;5021075;28;20473;-53
2021/10/21 05:24:02;;;;;;;6.95;0.70;;;;;;;13.52;68.00;98427.09;5022610;28;20063;-53
2021/10/21 05:26:29;;;;;;;7.63;1.17;;;;;;;13.59;67.34;98440.69;5024263;28;20169;-53
2021/10/21 05:28:55;;;;;;;8.90;1.27;;;;;;;13.53;67.54;98431.44;5021363;28;20091;-52
2021/10/21 05:31:22;;;;;;;12.00;1.23;;;;;;;13.51;66.70;98417.44;5018050;28;20414;-54
2021/10/21 05:33:48;;;;;;;5.32;0.90;;;;;;;13.51;66.68;98451.19;5029153;28;20055;-54
2021/10/21 05:36:15;;;;;;;9.27;0.95;;;;;;;13.50;66.58;98426.41;5026692;28;20056;-54
2021/10/21 05:38:41;;;;;;;7.10;0.75;;;;;;;13.52;66.45;98444.88;5025323;28;20466;-52
2021/10/21 05:41:08;;;;;;;4.53;0.80;;;;;;;13.51;66.22;98396.19;5018352;28;20048;-54
2021/10/21 05:43:34;;;;;;;9.93;0.80;;;;;;;13.47;65.05;98458.56;5034979;28;20056;-51
2021/10/21 05:46:01;;;;;;;5.63;0.88;;;;;;;13.59;63.84;98404.28;5023484;28;20144;-53
2021/10/21 05:48:28;;;;;;;8.27;0.75;;;;;;;13.67;62.94;98422.22;5023330;28;20045;-53
2021/10/21 05:50:55;;;;;;;8.13;1.10;;;;;;;13.72;62.47;98417.28;5019939;28;20056;-53
2021/10/21 05:53:21;;;;;;;4.85;0.65;;;;;;;13.79;62.11;98445.03;5021768;28;20055;-53
2021/10/21 05:55:48;;;;;;;8.10;0.68;;;;;;;13.81;61.94;98423.63;5018586;28;20049;-53
2021/10/21 05:58:14;;;;;;;7.05;0.73;;;;;;;13.77;62.33;98444.34;5008782;28;20053;-53
2021/10/21 06:00:41;;;;;;;8.13;1.00;;;;;;;13.79;61.67;98457.50;5022742;28;20402;-53
2021/10/21 06:03:09;;;;;;;6.82;0.65;;;;;;;13.79;61.23;98441.53;5024259;28;20500;-53
2021/10/21 06:05:36;;;;;;;6.70;0.70;;;;;;;13.81;61.26;98444.91;5024578;28;20432;-53
2021/10/21 06:08:03;;;;;;;3.67;0.38;;;;;;;13.78;61.25;98467.28;5025176;28;20049;-55
2021/10/21 06:10:30;;;;;;;6.03;0.75;;;;;;;13.81;60.58;98452.88;5023640;28;20045;-54
2021/10/21 06:12:58;;;;;;;19.35;0.90;;;;;;;13.83;60.88;98472.22;5024463;28;20049;-52
2021/10/21 06:15:26;;;;;;;7.63;0.77;;;;;;;13.78;61.41;98493.06;5018332;28;20167;-54
2021/10/21 06:17:55;;;;;;;6.97;0.50;;;;;;;13.77;61.38;98486.91;5019449;28;20589;-53
2021/10/21 06:20:22;;;;;;;1.50;0.35;;;;;;;13.79;60.82;98516.88;5024073;28;20046;-54
2021/10/21 06:22:49;;;;;;;7.55;0.63;;;;;;;13.80;60.57;98552.28;5017347;28;20037;-52
2021/10/21 06:25:15;;;;;;;1.77;0.40;;;;;;;13.74;60.72;98519.09;5032209;28;20049;-53
2021/10/21 06:27:42;;;;;;;4.90;0.85;;;;;;;13.69;61.04;98537.31;5022238;28;20049;-53
2021/10/21 06:30:09;;;;;;;6.30;0.80;;;;;;;13.77;61.25;98568.53;5022427;28;20053;-53
2021/10/21 06:32:37;;;;;;;3.67;0.47;;;;;;;13.73;61.20;98567.94;5020160;28;20072;-52
2021/10/21 06:35:05;;;;;;;3.17;0.22;;;;;;;13.63;61.09;98617.63;5015113;28;20053;-52
2021/10/21 06:37:31;;;;;;;3.63;0.70;;;;;;;13.76;60.77;98617.38;5023652;28;20526;-52
2021/10/21 06:39:58;;;;;;;6.85;0.40;;;;;;;13.75;61.10;98616.53;5027534;28;20413;-52
2021/10/21 06:42:24;;;;;;;4.82;0.52;;;;;;;13.66;61.38;98623.53;5019623;28;20040;-52
2021/10/21 06:44:51;;;;;;;4.45;0.77;;;;;;;13.68;61.46;98612.75;5021855;28;20060;-52
2021/10/21 06:47:18;;;;;;;3.58;0.40;;;;;;;13.58;62.32;98610.03;5019965;28;20053;-53
2021/10/21 06:49:45;;;;;;;2.13;0.40;;;;;;;13.55;63.14;98658.16;5024100;28;20461;-54
2021/10/21 06:52:11;;;;;;;3.92;0.50;;;;;;;13.42;64.97;98656.69;5014731;28;20053;-53
2021/10/21 06:54:38;;;;;;;1.23;0.30;;;;;;;13.22;66.10;98653.13;5023173;28;20071;-53
2021/10/21 06:57:04;;;;;;;5.65;0.30;;;;;;;13.09;66.68;98660.38;5026174;28;20423;-52
2021/10/21 06:59:31;;;;;;;3.60;0.55;;;;;;;13.00;68.13;98725.78;5023953;28;20056;-52
2021/10/21 07:01:57;;;;;;;4.30;0.40;;;;;;;12.79;69.31;98699.19;5027799;28;20329;-52
2021/10/21 07:04:25;;;;;;;4.28;0.50;;;;;;;12.77;69.94;98717.06;5023051;28;20156;-53
2021/10/21 07:06:51;;;;;;;2.72;0.57;;;;;;;12.77;70.47;98729.50;5018534;28;20106;-54
2021/10/21 07:09:18;;;;;;;3.92;0.55;;;;;;;12.73;70.53;98734.25;5023509;28;20137;-54
2021/10/21 07:11:44;;;;;;;5.20;0.30;;;;;;;12.75;70.76;98742.09;5011287;28;20055;-52
2021/10/21 07:14:11;;;;;;;1.65;0.30;;;;;;;12.81;70.36;98784.06;5027898;28;20367;-52
2021/10/21 07:16:37;;;;;;;3.58;0.43;;;;;;;12.84;70.35;98778.50;5024701;28;20057;-53
2021/10/21 07:19:04;;;;;;;0.73;0.30;;;;;;;12.88;70.42;98801.19;5026839;28;20049;-53
2021/10/21 07:21:30;;;;;;;2.65;0.63;;;;;;;12.83;70.96;98806.88;5027710;28;20502;-53
2021/10/21 07:23:57;;;;;;;2.90;0.45;;;;;;;12.81;71.41;98821.25;5017110;28;20056;-52
2021/10/21 07:26:23;;;;;;;3.65;0.30;;;;;;;12.71;71.49;98858.34;5023801;28;20060;-52
2021/10/21 07:28:50;;;;;;;5.20;0.20;;;;;;;12.73;72.36;98853.75;5023854;28;20049;-52
2021/10/21 07:31:18;;;;;;;4.68;0.30;;;;;;;12.75;72.22;98869.56;5031107;28;20057;-53
2021/10/21 07:33:45;;;;;;;4.68;0.35;;;;;;;12.73;72.68;98890.94;5027553;28;20084;-53
2021/10/21 07:36:11;;;;;;;0.98;0.30;;;;;;;12.75;72.98;98912.88;5020777;28;20076;-53
2021/10/21 07:38:38;;;;;;;1.67;0.30;;;;;;;12.74;73.33;98928.97;5026230;28;20066;-53
2021/10/21 07:41:05;;;;;;;1.35;0.28;;;;;;;12.71;73.12;98943.34;5016721;28;20045;-52
2021/10/21 07:43:37;;;;;;;1.63;0.20;;;;;;;12.74;73.25;98963.50;5018672;28;20064;-53
2021/10/21 07:46:04;;;;;;;2.63;0.22;;;;;;;12.58;72.96;98947.94;5024224;28;20049;-55
2021/10/21 07:48:31;;;;;;;3.45;0.30;;;;;;;12.84;72.20;98970.63;5021141;28;20065;-52
2021/10/21 07:50:58;;;;;;;1.55;0.32;;;;;;;12.67;72.20;98978.22;5025620;28;20045;-52
2021/10/21 07:53:27;;;;;;;0.88;0.28;;;;;;;12.97;69.70;99037.75;5022795;28;20489;-51
2021/10/21 07:55:54;;;;;;;1.05;0.10;;;;;;;12.93;69.79;99032.81;5018228;28;20057;-52
2021/10/21 07:58:21;;;;;;;0.70;0.10;;;;;;;12.88;68.65;99035.84;5022763;28;20125;-52
2021/10/21 08:00:48;;;;;;;2.30;0.20;;;;;;;12.91;68.58;99069.28;5020047;28;20041;-53
2021/10/21 08:03:15;;;;;;;2.95;0.20;;;;;;;12.93;68.87;99086.78;5019768;28;20049;-52
2021/10/21 08:05:42;;;;;;;0.63;0.20;;;;;;;12.97;68.11;99082.09;5022822;28;21353;-54
2021/10/21 08:08:09;;;;;;;1.73;0.20;;;;;;;12.98;66.44;99121.84;5020717;28;20794;-51
2021/10/21 08:10:36;;;;;;;2.42;0.20;;;;;;;12.96;66.18;99104.31;5015905;28;20579;-54
2021/10/21 08:13:02;;;;;;;1.80;0.10;;;;;;;13.02;64.16;99101.19;5020344;28;20045;-52
2021/10/21 08:15:29;;;;;;;0.65;0.10;;;;;;;13.08;63.29;99106.00;5022510;28;20053;-52
2021/10/21 08:17:57;;;;;;;1.30;0.10;;;;;;;13.12;63.38;99135.88;5020129;28;20053;-52
2021/10/21 08:20:26;;;;;;;0.80;0.10;;;;;;;13.09;63.50;99136.94;5023068;28;20372;-53
2021/10/21 08:22:58;;;;;;;1.13;0.10;;;;;;;13.16;63.34;99177.22;5024964;28;20056;-52
2021/10/21 08:25:25;;;;;;;0.70;0.10;;;;;;;13.15;62.21;99181.69;5022632;28;20049;-52
2021/10/21 08:27:52;;;;;;;0.55;0.10;;;;;;;13.15;62.98;99165.75;5022911;28;20048;-53
2021/10/21 08:30:23;;;;;;;0.70;0.30;;;;;;;13.19;62.29;99209.75;5023551;28;20061;-52
2021/10/21 08:32:49;;;;;;;;;;;;;;;13.17;62.58;99203.69;5020135;28;20051;-53
2021/10/21 08:35:16;;;;;;;0.95;0.00;;;;;;;13.17;63.01;99221.47;5021553;28;19932;-54
2021/10/21 08:37:45;;;;;;;1.15;0.10;;;;;;;13.18;61.36;99228.47;5016074;28;20446;-54
2021/10/21 08:40:15;;;;;;;0.80;0.20;;;;;;;13.12;60.40;99228.88;5017860;28;20060;-54
2021/10/21 08:42:44;;;;;;;1.27;0.30;;;;;;;13.24;59.46;99238.63;5026204;28;20049;-54
2021/10/21 08:45:11;;;;;;;0.82;0.20;;;;;;;13.11;58.68;99249.31;5020850;28;20610;-53
2021/10/21 08:47:49;;;;;;;1.25;0.25;;;;;;;13.16;58.58;99270.25;5022485;28;20049;-53
2021/10/21 08:50:21;;;;;;;3.08;0.22;;;;;;;13.16;59.03;99263.13;5022296;28;20040;-51
2021/10/21 08:52:48;;;;;;;2.00;0.20;;;;;;;13.23;58.88;99274.97;5018000;28;20039;-53
2021/10/21 08:55:15;;;;;;;1.23;0.50;;;;;;;13.29;57.67;99273.69;5018796;28;20518;-53
2021/10/21 08:57:43;;;;;;;1.67;0.30;;;;;;;13.30;58.07;99284.19;5016922;28;20056;-54
2021/10/21 09:00:11;;;;;;;4.70;0.50;;;;;;;13.38;57.84;99291.59;5015746;28;20049;-51
2021/10/21 09:02:55;;;;;;;2.35;0.40;;;;;;;13.43;57.22;99313.38;5016178;28;20470;-51
2021/10/21 09:05:30;;;;;;;2.67;0.60;;;;;;;13.48;57.10;99329.84;5008018;28;20053;-52
2021/10/21 09:08:11;;;;;;;3.42;0.55;;;;;;;13.47;57.44;99341.44;5028769;28;20049;-53
2021/10/21 09:10:47;;;;;;;6.18;0.63;;;;;;;13.61;57.48;99366.97;5018580;28;20049;-53
2021/10/21 09:13:31;;;;;;;3.63;0.57;;;;;;;13.70;57.01;99360.94;5015400;28;20044;-51
2021/10/21 09:16:00;;;;;;;3.67;0.60;;;;;;;13.61;56.79;99348.38;5020213;28;20060;-52
2021/10/21 09:18:43;;;;;;;3.80;0.80;;;;;;;13.62;56.34;99366.88;5018463;28;21450;-51
2021/10/21 09:21:50;;;;;;;5.18;0.77;;;;;;;13.74;57.13;99373.06;5024936;28;20044;-52
2021/10/21 09:24:25;;;;;;;2.13;0.50;;;;;;;13.95;57.01;99373.25;5017610;28;20049;-53
2021/10/21 09:27:14;;;;;;;3.22;0.77;;;;;;;14.17;55.36;99378.59;5025796;28;20156;-53
2021/10/21 09:29:49;;;;;;;2.65;0.70;;;;;;;14.16;54.51;99382.25;5022121;28;20041;-53
2021/10/21 09:32:20;;;;;;;3.20;0.77;;;;;;;14.29;53.99;99393.63;5020047;28;20048;-53
2021/10/21 09:34:50;;;;;;;;;;;;;;;14.49;55.15;99399.22;5015573;28;20053;-53
2021/10/21 09:37:23;;;;;;;3.38;0.80;;;;;;;14.65;53.67;99391.72;5023259;28;22468;-53
2021/10/21 09:39:53;;;;;;;4.32;0.82;;;;;;;14.95;52.86;99405.25;5016679;28;20090;-53
2021/10/21 09:42:28;;;;;;;1.83;0.57;;;;;;;15.24;52.61;99397.56;5017682;28;20072;-52
2021/10/21 09:45:24;;;;;;;4.68;1.52;;;;;;;15.25;52.65;99393.06;5016450;28;20387;-54
2021/10/21 09:47:56;;;;;;;3.83;0.88;;;;;;;15.49;51.69;99393.72;5021667;28;20061;-52
2021/10/21 09:50:32;;;;;;;5.20;0.82;;;;;;;15.45;50.97;99405.59;5023352;28;20521;-51
2021/10/21 09:53:22;;;;;;;2.33;0.70;;;;;;;15.01;50.82;99420.75;5017636;28;20049;-52
2021/10/21 09:56:01;;;;;;;1.30;0.82;;;;;;;14.78;51.77;99402.25;5025173;28;20041;-53
2021/10/21 09:58:33;;;;;;;4.38;0.80;;;;;;;14.69;51.95;99433.13;5034702;28;20053;-52
2021/10/21 10:01:05;;;;;;;3.58;0.60;;;;;;;14.56;52.34;99435.06;5029975;28;20049;-52
2021/10/21 10:03:33;;;;;;;3.30;0.95;;;;;;;14.53;53.25;99464.63;5028530;28;20411;-52
2021/10/21 10:06:00;;;;;;;3.42;0.85;;;;;;;14.51;52.78;99443.41;5026285;28;20490;-52
2021/10/21 10:08:30;;;;;;;3.38;0.80;;;;;;;14.23;53.71;99439.38;5029026;28;20470;-53
2021/10/21 10:10:59;;;;;;;2.17;0.68;;;;;;;13.99;53.45;99430.59;5026308;28;20078;-52
2021/10/21 10:13:28;;;;;;;3.40;0.90;;;;;;;13.68;54.54;99440.06;5023253;28;20792;-52
2021/10/21 10:15:58;;;;;;;4.32;0.63;;;;;;;13.53;55.17;99439.41;5021525;28;20144;-52
2021/10/21 10:18:31;;;;;;;3.88;0.70;;;;;;;13.62;54.73;99467.97;5035949;28;20079;-52
2021/10/21 10:21:18;;;;;;;3.30;0.80;;;;;;;13.61;55.13;99498.19;5030373;28;20196;-52
2021/10/21 10:23:51;;;;;;;6.35;1.10;;;;;;;13.77;53.83;99492.56;5014291;28;20405;-52
2021/10/21 10:26:45;;;;;;;7.55;0.65;;;;;;;13.77;54.04;99486.41;5035058;28;20084;-54
2021/10/21 10:29:13;;;;;;;3.05;0.90;;;;;;;13.77;54.36;99511.19;5034737;28;20599;-52
2021/10/21 10:31:42;;;;;;;4.45;0.80;;;;;;;13.76;53.81;99484.69;5012143;28;20048;-53
2021/10/21 10:34:31;;;;;;;4.57;0.73;;;;;;;13.75;53.74;99520.25;5027367;28;20064;-53
2021/10/21 10:37:13;;;;;;;2.08;0.70;;;;;;;13.59;54.01;99510.75;5031657;28;20053;-52
2021/10/21 10:39:50;;;;;;;4.15;0.80;;;;;;;13.63;54.79;99516.69;5032064;28;20593;-52
2021/10/21 10:42:37;;;;;;;2.45;0.77;;;;;;;13.67;54.44;99528.81;5022946;28;20052;-53
2021/10/21 10:45:14;;;;;;;4.28;0.85;;;;;;;13.69;54.23;99540.19;5032614;28;20131;-52
2021/10/21 10:47:57;;;;;;;4.63;1.00;;;;;;;13.73;54.34;99546.97;5031222;28;20378;-52
2021/10/21 10:50:26;;;;;;;6.00;1.17;;;;;;;13.95;53.95;99543.59;5026946;28;20052;-53
2021/10/21 10:52:59;;;;;;;4.43;0.65;;;;;;;14.03;53.73;99575.78;5023944;28;20049;-52
2021/10/21 10:55:35;;;;;;;5.68;1.30;;;;;;;14.17;53.71;99548.13;5019873;28;20061;-54
2021/10/21 10:58:03;;;;;;;6.68;1.10;;;;;;;14.17;53.93;99558.78;5021948;28;20056;-54
2021/10/21 11:00:37;;;;;;;4.60;0.98;;;;;;;14.27;54.21;99550.00;5034906;28;20049;-52
2021/10/21 11:03:08;;;;;;;5.38;1.02;;;;;;;14.33;53.83;99557.53;5018448;28;20442;-53
2021/10/21 11:05:51;;;;;;;3.42;0.73;;;;;;;14.41;53.68;99572.13;5017506;28;20044;-52
2021/10/21 11:08:18;;;;;;;5.88;1.00;;;;;;;14.36;52.85;99559.94;5024004;28;20045;-52
2021/10/21 11:10:46;;;;;;;7.38;1.10;;;;;;;14.49;53.22;99570.56;5025938;28;20490;-51
2021/10/21 11:13:23;;;;;;;4.05;0.85;;;;;;;14.62;52.94;99555.34;5013587;28;20045;-54
2021/10/21 11:15:56;;;;;;;4.18;1.55;;;;;;;14.81;52.32;99561.91;5025149;28;20045;-52
2021/10/21 11:18:43;;;;;;;4.43;1.00;;;;;;;14.92;51.46;99567.28;5019595;28;20048;-53
2021/10/21 11:21:48;;;;;;;5.47;1.10;;;;;;;14.99;51.08;99579.13;5008513;28;20156;-54
2021/10/21 11:24:42;;;;;;;4.13;1.02;;;;;;;14.94;51.11;99566.19;5010939;28;20051;-52
2021/10/21 11:27:10;;;;;;;6.90;1.02;;;;;;;14.71;50.80;99577.75;5018590;28;20497;-52
2021/10/21 11:29:38;;;;;;;7.35;1.27;;;;;;;14.68;51.22;99562.00;5023695;28;20418;-53
2021/10/21 11:32:06;;;;;;;4.00;0.73;;;;;;;14.61;50.88;99564.31;5021970;28;20800;-52
2021/10/21 11:34:33;;;;;;;7.57;1.17;;;;;;;14.59;51.15;99582.22;5016713;28;20053;-51
2021/10/21 11:37:00;;;;;;;4.28;0.90;;;;;;;14.57;49.80;99543.34;5019751;28;20045;-53
2021/10/21 11:39:31;;;;;;;5.32;1.08;;;;;;;14.65;50.02;99554.25;5043806;28;20109;-52
2021/10/21 11:42:02;;;;;;;7.43;1.48;;;;;;;14.63;50.95;99556.22;5024747;28;20057;-52